Terminal Aerodrome Forecast
Issued by NWS

Home | Current Version | Previous Version | Graphics & Text | Print | Product List | Glossary On
Versions: 1 2 3 4 5 6 7 8 9 10 11 12 13 14 15 16 17 18 19
149
FTUS41 KCLE 102035 AAA
TAFFDY
TAF AMD
KFDY 102035Z 1021/1118 27015KT P6SM VCSH BKN015 OVC025
      TEMPO 1021/1023 1SM -SHSN
     FM110500 29010KT P6SM BKN035=

USA.gov is the U.S. government's official web portal to all federal, state and local government web resources and services.